sensor_id;sensor_type;location;lat;lon;timestamp;pressure;altitude;pressure_sealevel;temperature;humidity
9415;BME280;4746;35.664;139.738;2023-12-20T00:00:02;100030.53;;;13.66;33.58
9415;BME280;4746;35.664;139.738;2023-12-20T00:02:30;100015.03;;;13.75;33.56
9415;BME280;4746;35.664;139.738;2023-12-20T00:04:57;100020.94;;;13.86;33.70
9415;BME280;4746;35.664;139.738;2023-12-20T00:07:25;100016.50;;;14.01;33.77
9415;BME280;4746;35.664;139.738;2023-12-20T00:09:52;100006.03;;;14.16;33.57
9415;BME280;4746;35.664;139.738;2023-12-20T00:12:19;100000.75;;;14.31;33.50
9415;BME280;4746;35.664;139.738;2023-12-20T00:14:47;100008.34;;;14.43;33.63
9415;BME280;4746;35.664;139.738;2023-12-20T00:17:14;99994.47;;;14.51;33.48
9415;BME280;4746;35.664;139.738;2023-12-20T00:19:42;99997.72;;;14.66;33.12
9415;BME280;4746;35.664;139.738;2023-12-20T00:22:09;99986.31;;;14.82;33.01
9415;BME280;4746;35.664;139.738;2023-12-20T00:24:37;99977.63;;;14.89;32.70
9415;BME280;4746;35.664;139.738;2023-12-20T00:27:05;99987.06;;;14.89;32.45
9415;BME280;4746;35.664;139.738;2023-12-20T00:29:32;99968.13;;;14.91;32.96
9415;BME280;4746;35.664;139.738;2023-12-20T00:32:00;99968.97;;;14.93;32.98
9415;BME280;4746;35.664;139.738;2023-12-20T00:34:27;99954.47;;;14.85;33.18
9415;BME280;4746;35.664;139.738;2023-12-20T00:36:55;99954.59;;;14.77;33.24
9415;BME280;4746;35.664;139.738;2023-12-20T00:39:23;99946.88;;;14.74;33.39
9415;BME280;4746;35.664;139.738;2023-12-20T00:41:51;99942.50;;;14.81;33.05
9415;BME280;4746;35.664;139.738;2023-12-20T00:44:18;99942.47;;;14.82;33.21
9415;BME280;4746;35.664;139.738;2023-12-20T00:46:46;99925.16;;;14.89;33.82
9415;BME280;4746;35.664;139.738;2023-12-20T00:49:13;99925.19;;;14.87;33.46
9415;BME280;4746;35.664;139.738;2023-12-20T00:51:41;99903.72;;;14.85;33.47
9415;BME280;4746;35.664;139.738;2023-12-20T00:54:11;99903.53;;;14.97;33.60
9415;BME280;4746;35.664;139.738;2023-12-20T00:56:38;99908.47;;;15.12;33.34
9415;BME280;4746;35.664;139.738;2023-12-20T00:59:06;99900.53;;;15.26;33.23
9415;BME280;4746;35.664;139.738;2023-12-20T01:01:33;99890.03;;;15.34;32.90
9415;BME280;4746;35.664;139.738;2023-12-20T01:04:01;99886.44;;;15.43;33.16
9415;BME280;4746;35.664;139.738;2023-12-20T01:06:28;99872.56;;;15.48;33.12
9415;BME280;4746;35.664;139.738;2023-12-20T01:08:58;99875.84;;;15.58;33.11
9415;BME280;4746;35.664;139.738;2023-12-20T01:11:26;99891.22;;;15.64;33.02
9415;BME280;4746;35.664;139.738;2023-12-20T01:13:53;99881.78;;;15.63;32.80
9415;BME280;4746;35.664;139.738;2023-12-20T01:16:21;99883.44;;;15.65;33.29
9415;BME280;4746;35.664;139.738;2023-12-20T01:18:48;99861.06;;;15.64;33.09
9415;BME280;4746;35.664;139.738;2023-12-20T01:21:17;99856.75;;;15.66;33.21
9415;BME280;4746;35.664;139.738;2023-12-20T01:23:48;99859.28;;;15.68;33.26
9415;BME280;4746;35.664;139.738;2023-12-20T01:26:16;99844.66;;;15.68;33.21
9415;BME280;4746;35.664;139.738;2023-12-20T01:28:43;99836.91;;;15.67;33.59
9415;BME280;4746;35.664;139.738;2023-12-20T01:31:11;99833.53;;;15.65;33.20
9415;BME280;4746;35.664;139.738;2023-12-20T01:33:38;99825.78;;;15.63;33.16
9415;BME280;4746;35.664;139.738;2023-12-20T01:36:09;99834.34;;;15.68;33.36
9415;BME280;4746;35.664;139.738;2023-12-20T01:38:36;99828.28;;;15.68;33.40
9415;BME280;4746;35.664;139.738;2023-12-20T01:41:04;99823.22;;;15.65;33.28
9415;BME280;4746;35.664;139.738;2023-12-20T01:43:32;99826.72;;;15.61;33.04
9415;BME280;4746;35.664;139.738;2023-12-20T01:45:59;99818.03;;;15.63;33.38
9415;BME280;4746;35.664;139.738;2023-12-20T01:48:28;99806.81;;;15.67;33.24
9415;BME280;4746;35.664;139.738;2023-12-20T01:51:00;99820.34;;;15.78;33.09
9415;BME280;4746;35.664;139.738;2023-12-20T01:53:30;99800.25;;;15.91;33.22
9415;BME280;4746;35.664;139.738;2023-12-20T01:56:00;99800.78;;;16.06;32.83
9415;BME280;4746;35.664;139.738;2023-12-20T01:58:28;99794.56;;;16.14;32.59
9415;BME280;4746;35.664;139.738;2023-12-20T02:00:57;99788.28;;;16.27;32.70
9415;BME280;4746;35.664;139.738;2023-12-20T02:03:25;99786.38;;;16.35;32.51
9415;BME280;4746;35.664;139.738;2023-12-20T02:05:54;99785.41;;;16.39;32.17
9415;BME280;4746;35.664;139.738;2023-12-20T02:08:21;99784.53;;;16.40;31.82
9415;BME280;4746;35.664;139.738;2023-12-20T02:10:49;99763.03;;;16.38;32.18
9415;BME280;4746;35.664;139.738;2023-12-20T02:13:17;99755.72;;;16.55;32.35
9415;BME280;4746;35.664;139.738;2023-12-20T02:15:44;99752.56;;;16.77;31.55
9415;BME280;4746;35.664;139.738;2023-12-20T02:18:14;99740.00;;;16.96;31.46
9415;BME280;4746;35.664;139.738;2023-12-20T02:20:43;99723.03;;;17.16;31.03
9415;BME280;4746;35.664;139.738;2023-12-20T02:23:13;99722.50;;;17.37;30.92
9415;BME280;4746;35.664;139.738;2023-12-20T02:25:41;99717.34;;;17.36;30.84
9415;BME280;4746;35.664;139.738;2023-12-20T02:28:08;99736.88;;;17.47;30.51
9415;BME280;4746;35.664;139.738;2023-12-20T02:30:36;99719.56;;;17.49;30.20
9415;BME280;4746;35.664;139.738;2023-12-20T02:33:07;99723.88;;;17.48;30.31
9415;BME280;4746;35.664;139.738;2023-12-20T02:35:35;99723.53;;;17.60;29.75
9415;BME280;4746;35.664;139.738;2023-12-20T02:38:05;99722.47;;;17.67;29.72
9415;BME280;4746;35.664;139.738;2023-12-20T02:40:33;99709.34;;;17.73;29.49
9415;BME280;4746;35.664;139.738;2023-12-20T02:43:01;99702.03;;;17.86;29.64
9415;BME280;4746;35.664;139.738;2023-12-20T02:45:28;99701.56;;;18.01;29.56
9415;BME280;4746;35.664;139.738;2023-12-20T02:47:56;99698.88;;;18.31;29.34
9415;BME280;4746;35.664;139.738;2023-12-20T02:50:24;99698.34;;;18.47;28.77
9415;BME280;4746;35.664;139.738;2023-12-20T02:52:51;99696.31;;;18.57;28.68
9415;BME280;4746;35.664;139.738;2023-12-20T02:55:19;99690.38;;;18.78;28.54
9415;BME280;4746;35.664;139.738;2023-12-20T02:57:46;99680.00;;;18.78;28.38
9415;BME280;4746;35.664;139.738;2023-12-20T03:00:14;99678.28;;;18.77;28.15
9415;BME280;4746;35.664;139.738;2023-12-20T03:02:42;99667.59;;;18.85;27.92
9415;BME280;4746;35.664;139.738;2023-12-20T03:05:09;99670.59;;;18.98;27.76
9415;BME280;4746;35.664;139.738;2023-12-20T03:07:39;99669.72;;;19.23;27.69
9415;BME280;4746;35.664;139.738;2023-12-20T03:10:07;99660.25;;;19.45;27.45
9415;BME280;4746;35.664;139.738;2023-12-20T03:12:36;99651.56;;;19.67;27.34
9415;BME280;4746;35.664;139.738;2023-12-20T03:15:03;99651.91;;;20.24;26.92
9415;BME280;4746;35.664;139.738;2023-12-20T03:17:31;99634.44;;;20.67;26.45
9415;BME280;4746;35.664;139.738;2023-12-20T03:19:59;99638.97;;;21.02;25.75
9415;BME280;4746;35.664;139.738;2023-12-20T03:22:26;99633.88;;;21.19;25.48
9415;BME280;4746;35.664;139.738;2023-12-20T03:24:53;99619.81;;;21.41;25.26
9415;BME280;4746;35.664;139.738;2023-12-20T03:27:21;99623.06;;;21.65;25.73
9415;BME280;4746;35.664;139.738;2023-12-20T03:29:48;99615.25;;;22.00;25.66
9415;BME280;4746;35.664;139.738;2023-12-20T03:32:16;99616.44;;;22.28;25.33
9415;BME280;4746;35.664;139.738;2023-12-20T03:34:43;99605.31;;;22.41;25.41
9415;BME280;4746;35.664;139.738;2023-12-20T03:37:11;99603.56;;;22.42;25.76
9415;BME280;4746;35.664;139.738;2023-12-20T03:39:38;99600.03;;;22.43;25.86
9415;BME280;4746;35.664;139.738;2023-12-20T03:42:06;99599.63;;;23.00;25.42
9415;BME280;4746;35.664;139.738;2023-12-20T03:44:33;99581.28;;;24.67;23.57
9415;BME280;4746;35.664;139.738;2023-12-20T03:47:01;99565.22;;;25.95;22.58
9415;BME280;4746;35.664;139.738;2023-12-20T03:49:28;99564.34;;;27.10;21.50
9415;BME280;4746;35.664;139.738;2023-12-20T03:51:56;99551.09;;;28.17;20.66
9415;BME280;4746;35.664;139.738;2023-12-20T03:54:25;99555.28;;;29.21;19.86
9415;BME280;4746;35.664;139.738;2023-12-20T03:56:52;99550.25;;;29.82;19.72
9415;BME280;4746;35.664;139.738;2023-12-20T03:59:22;99553.72;;;30.25;19.43
9415;BME280;4746;35.664;139.738;2023-12-20T04:01:50;99547.69;;;30.54;18.67
9415;BME280;4746;35.664;139.738;2023-12-20T04:04:18;99550.50;;;30.21;18.68
9415;BME280;4746;35.664;139.738;2023-12-20T04:06:46;99545.50;;;30.07;19.10
9415;BME280;4746;35.664;139.738;2023-12-20T04:09:13;99557.91;;;30.27;18.82
9415;BME280;4746;35.664;139.738;2023-12-20T04:11:41;99552.91;;;30.24;19.03
9415;BME280;4746;35.664;139.738;2023-12-20T04:14:08;99550.25;;;29.93;19.02
9415;BME280;4746;35.664;139.738;2023-12-20T04:16:37;99550.50;;;29.48;19.56
9415;BME280;4746;35.664;139.738;2023-12-20T04:19:05;99544.22;;;29.27;19.32
9415;BME280;4746;35.664;139.738;2023-12-20T04:21:51;99555.88;;;29.13;20.07
9415;BME280;4746;35.664;139.738;2023-12-20T04:24:25;99552.53;;;28.89;19.68
9415;BME280;4746;35.664;139.738;2023-12-20T04:26:53;99552.00;;;28.74;20.38
9415;BME280;4746;35.664;139.738;2023-12-20T04:29:21;99540.75;;;28.83;20.35
9415;BME280;4746;35.664;139.738;2023-12-20T04:31:53;99544.88;;;28.86;19.81
9415;BME280;4746;35.664;139.738;2023-12-20T04:34:21;99543.06;;;28.87;19.92
9415;BME280;4746;35.664;139.738;2023-12-20T04:36:49;99548.56;;;29.39;19.52
9415;BME280;4746;35.664;139.738;2023-12-20T04:39:30;99547.22;;;30.69;18.68
9415;BME280;4746;35.664;139.738;2023-12-20T04:42:00;99538.38;;;31.49;18.20
9415;BME280;4746;35.664;139.738;2023-12-20T04:44:29;99533.91;;;32.07;17.85
9415;BME280;4746;35.664;139.738;2023-12-20T04:46:59;99540.84;;;31.89;17.85
9415;BME280;4746;35.664;139.738;2023-12-20T04:49:27;99547.81;;;31.72;17.45
9415;BME280;4746;35.664;139.738;2023-12-20T04:51:54;99547.44;;;31.46;17.56
9415;BME280;4746;35.664;139.738;2023-12-20T04:54:23;99531.19;;;31.60;17.71
9415;BME280;4746;35.664;139.738;2023-12-20T04:56:53;99529.41;;;32.36;17.29
9415;BME280;4746;35.664;139.738;2023-12-20T04:59:21;99540.28;;;31.76;16.70
9415;BME280;4746;35.664;139.738;2023-12-20T05:01:48;99552.94;;;30.74;17.43
9415;BME280;4746;35.664;139.738;2023-12-20T05:04:20;99542.16;;;30.05;18.36
9415;BME280;4746;35.664;139.738;2023-12-20T05:06:47;99552.03;;;29.17;18.57
9415;BME280;4746;35.664;139.738;2023-12-20T05:09:19;99559.47;;;28.80;19.32
9415;BME280;4746;35.664;139.738;2023-12-20T05:11:49;99557.19;;;28.86;19.56
9415;BME280;4746;35.664;139.738;2023-12-20T05:14:16;99569.06;;;29.46;18.91
9415;BME280;4746;35.664;139.738;2023-12-20T05:16:44;99567.78;;;29.19;18.57
9415;BME280;4746;35.664;139.738;2023-12-20T05:19:11;99572.19;;;28.85;18.83
9415;BME280;4746;35.664;139.738;2023-12-20T05:21:39;99580.31;;;28.37;18.75
9415;BME280;4746;35.664;139.738;2023-12-20T05:24:07;99579.75;;;27.87;19.75
9415;BME280;4746;35.664;139.738;2023-12-20T05:26:34;99587.44;;;27.42;19.88
9415;BME280;4746;35.664;139.738;2023-12-20T05:29:02;99599.03;;;26.90;20.31
9415;BME280;4746;35.664;139.738;2023-12-20T05:31:31;99594.53;;;26.92;20.51
9415;BME280;4746;35.664;139.738;2023-12-20T05:33:59;99579.16;;;29.08;18.93
9415;BME280;4746;35.664;139.738;2023-12-20T05:36:27;99572.28;;;30.45;17.86
9415;BME280;4746;35.664;139.738;2023-12-20T05:38:55;99576.25;;;31.00;17.13
9415;BME280;4746;35.664;139.738;2023-12-20T05:41:22;99575.75;;;32.32;16.58
9415;BME280;4746;35.664;139.738;2023-12-20T05:43:50;99569.34;;;33.54;15.79
9415;BME280;4746;35.664;139.738;2023-12-20T05:46:20;99576.09;;;34.28;15.83
9415;BME280;4746;35.664;139.738;2023-12-20T05:48:48;99575.75;;;34.91;15.34
9415;BME280;4746;35.664;139.738;2023-12-20T05:51:16;99583.88;;;34.89;15.31
9415;BME280;4746;35.664;139.738;2023-12-20T05:53:44;99585.50;;;34.40;15.88
9415;BME280;4746;35.664;139.738;2023-12-20T05:56:12;99590.00;;;34.99;15.80
9415;BME280;4746;35.664;139.738;2023-12-20T05:58:42;99594.47;;;35.57;15.07
9415;BME280;4746;35.664;139.738;2023-12-20T06:01:10;99594.69;;;34.63;15.60
9415;BME280;4746;35.664;139.738;2023-12-20T06:03:41;99600.97;;;33.38;16.25
9415;BME280;4746;35.664;139.738;2023-12-20T06:06:09;99602.28;;;32.32;16.88
9415;BME280;4746;35.664;139.738;2023-12-20T06:08:37;99603.94;;;31.17;17.88
9415;BME280;4746;35.664;139.738;2023-12-20T06:11:05;99603.34;;;30.01;18.07
9415;BME280;4746;35.664;139.738;2023-12-20T06:13:32;99604.81;;;28.95;19.66
9415;BME280;4746;35.664;139.738;2023-12-20T06:16:00;99605.69;;;28.04;20.38
9415;BME280;4746;35.664;139.738;2023-12-20T06:18:27;99610.22;;;27.18;20.72
9415;BME280;4746;35.664;139.738;2023-12-20T06:20:57;99608.06;;;26.49;21.89
9415;BME280;4746;35.664;139.738;2023-12-20T06:23:24;99602.03;;;25.68;22.11
9415;BME280;4746;35.664;139.738;2023-12-20T06:25:55;99616.25;;;24.96;22.79
9415;BME280;4746;35.664;139.738;2023-12-20T06:28:24;99611.97;;;24.36;22.60
9415;BME280;4746;35.664;139.738;2023-12-20T06:30:51;99614.97;;;23.85;23.32
9415;BME280;4746;35.664;139.738;2023-12-20T06:33:21;99617.38;;;23.42;24.35
9415;BME280;4746;35.664;139.738;2023-12-20T06:35:50;99623.25;;;22.98;24.40
9415;BME280;4746;35.664;139.738;2023-12-20T06:38:20;99623.53;;;22.60;24.76
9415;BME280;4746;35.664;139.738;2023-12-20T06:40:48;99618.41;;;22.23;25.12
9415;BME280;4746;35.664;139.738;2023-12-20T06:43:15;99613.16;;;21.89;25.60
9415;BME280;4746;35.664;139.738;2023-12-20T06:45:43;99614.72;;;21.57;26.10
9415;BME280;4746;35.664;139.738;2023-12-20T06:48:13;99611.75;;;21.27;26.71
9415;BME280;4746;35.664;139.738;2023-12-20T06:50:41;99622.72;;;20.97;26.95
9415;BME280;4746;35.664;139.738;2023-12-20T06:53:09;99635.34;;;20.66;27.68
9415;BME280;4746;35.664;139.738;2023-12-20T06:55:37;99633.03;;;20.39;28.05
9415;BME280;4746;35.664;139.738;2023-12-20T06:58:05;99621.34;;;20.08;28.71
9415;BME280;4746;35.664;139.738;2023-12-20T07:00:33;99625.03;;;19.81;28.79
9415;BME280;4746;35.664;139.738;2023-12-20T07:03:01;99625.06;;;19.58;29.39
9415;BME280;4746;35.664;139.738;2023-12-20T07:05:28;99632.78;;;19.38;29.41
9415;BME280;4746;35.664;139.738;2023-12-20T07:07:56;99639.50;;;19.21;29.97
9415;BME280;4746;35.664;139.738;2023-12-20T07:10:23;99636.69;;;19.02;30.40
9415;BME280;4746;35.664;139.738;2023-12-20T07:12:51;99639.06;;;18.85;30.42
9415;BME280;4746;35.664;139.738;2023-12-20T07:15:22;99646.59;;;18.69;30.17
9415;BME280;4746;35.664;139.738;2023-12-20T07:17:52;99658.34;;;18.53;30.44
9415;BME280;4746;35.664;139.738;2023-12-20T07:20:26;99654.59;;;18.37;30.52
9415;BME280;4746;35.664;139.738;2023-12-20T07:22:54;99651.72;;;18.20;30.63
9415;BME280;4746;35.664;139.738;2023-12-20T07:26:00;99640.88;;;18.06;30.76
9415;BME280;4746;35.664;139.738;2023-12-20T07:28:32;99638.88;;;17.88;30.68
9415;BME280;4746;35.664;139.738;2023-12-20T07:31:00;99626.41;;;17.73;30.66
9415;BME280;4746;35.664;139.738;2023-12-20T07:33:27;99644.03;;;17.62;31.01
9415;BME280;4746;35.664;139.738;2023-12-20T07:35:55;99648.75;;;17.50;31.65
9415;BME280;4746;35.664;139.738;2023-12-20T07:38:22;99649.13;;;17.37;31.90
9415;BME280;4746;35.664;139.738;2023-12-20T07:40:51;99644.25;;;17.25;31.60
9415;BME280;4746;35.664;139.738;2023-12-20T07:43:30;99647.25;;;17.11;31.99
9415;BME280;4746;35.664;139.738;2023-12-20T07:46:11;99645.13;;;16.95;32.01
9415;BME280;4746;35.664;139.738;2023-12-20T07:48:41;99654.03;;;16.85;32.57
9415;BME280;4746;35.664;139.738;2023-12-20T07:51:12;99653.41;;;16.77;32.30
9415;BME280;4746;35.664;139.738;2023-12-20T07:53:41;99635.47;;;16.69;32.50
9415;BME280;4746;35.664;139.738;2023-12-20T07:56:19;99634.69;;;16.68;32.23
9415;BME280;4746;35.664;139.738;2023-12-20T07:58:47;99651.31;;;16.59;32.48
9415;BME280;4746;35.664;139.738;2023-12-20T08:01:17;99665.13;;;16.57;33.07
9415;BME280;4746;35.664;139.738;2023-12-20T08:03:45;99661.00;;;16.51;32.90
9415;BME280;4746;35.664;139.738;2023-12-20T08:06:13;99671.38;;;16.50;33.19
9415;BME280;4746;35.664;139.738;2023-12-20T08:08:40;99678.38;;;16.46;32.97
9415;BME280;4746;35.664;139.738;2023-12-20T08:11:08;99680.19;;;16.43;32.60
9415;BME280;4746;35.664;139.738;2023-12-20T08:13:35;99677.63;;;16.41;32.50
9415;BME280;4746;35.664;139.738;2023-12-20T08:16:03;99674.22;;;16.39;32.44
9415;BME280;4746;35.664;139.738;2023-12-20T08:18:33;99673.41;;;16.39;32.24
9415;BME280;4746;35.664;139.738;2023-12-20T08:21:01;99674.34;;;16.35;32.30
9415;BME280;4746;35.664;139.738;2023-12-20T08:23:28;99689.91;;;16.33;32.83
9415;BME280;4746;35.664;139.738;2023-12-20T08:25:56;99686.47;;;16.33;32.64
9415;BME280;4746;35.664;139.738;2023-12-20T08:28:23;99702.88;;;16.30;32.55
9415;BME280;4746;35.664;139.738;2023-12-20T08:30:51;99696.03;;;16.29;32.96
9415;BME280;4746;35.664;139.738;2023-12-20T08:33:21;99711.56;;;16.26;33.06
9415;BME280;4746;35.664;139.738;2023-12-20T08:35:49;99700.41;;;16.26;33.12
9415;BME280;4746;35.664;139.738;2023-12-20T08:38:18;99699.63;;;16.22;33.20
9415;BME280;4746;35.664;139.738;2023-12-20T08:40:46;99695.31;;;16.21;33.74
9415;BME280;4746;35.664;139.738;2023-12-20T08:43:15;99698.75;;;16.23;34.41
9415;BME280;4746;35.664;139.738;2023-12-20T08:45:43;99706.53;;;16.20;34.63
9415;BME280;4746;35.664;139.738;2023-12-20T08:48:10;99710.00;;;16.19;35.51
9415;BME280;4746;35.664;139.738;2023-12-20T08:50:38;99710.94;;;16.17;36.00
9415;BME280;4746;35.664;139.738;2023-12-20T08:53:05;99698.91;;;16.16;36.58
9415;BME280;4746;35.664;139.738;2023-12-20T08:55:33;99701.53;;;16.14;36.89
9415;BME280;4746;35.664;139.738;2023-12-20T08:58:01;99699.81;;;16.13;37.26
9415;BME280;4746;35.664;139.738;2023-12-20T09:00:28;99686.97;;;16.10;37.27
9415;BME280;4746;35.664;139.738;2023-12-20T09:02:56;99682.72;;;16.08;37.80
9415;BME280;4746;35.664;139.738;2023-12-20T09:05:24;99690.53;;;16.06;38.11
9415;BME280;4746;35.664;139.738;2023-12-20T09:07:51;99689.72;;;16.04;38.84
9415;BME280;4746;35.664;139.738;2023-12-20T09:10:23;99696.59;;;16.05;38.51
9415;BME280;4746;35.664;139.738;2023-12-20T09:12:53;99682.88;;;16.02;38.90
9415;BME280;4746;35.664;139.738;2023-12-20T09:15:28;99675.03;;;16.05;39.54
9415;BME280;4746;35.664;139.738;2023-12-20T09:17:57;99674.25;;;16.01;39.85
9415;BME280;4746;35.664;139.738;2023-12-20T09:20:25;99672.63;;;15.98;39.93
9415;BME280;4746;35.664;139.738;2023-12-20T09:22:54;99689.84;;;15.98;40.00
9415;BME280;4746;35.664;139.738;2023-12-20T09:25:21;99689.03;;;15.97;40.17
9415;BME280;4746;35.664;139.738;2023-12-20T09:27:50;99702.88;;;15.94;40.68
9415;BME280;4746;35.664;139.738;2023-12-20T09:30:20;99696.88;;;15.94;40.57
9415;BME280;4746;35.664;139.738;2023-12-20T09:32:49;99690.00;;;15.93;40.74
9415;BME280;4746;35.664;139.738;2023-12-20T09:35:16;99683.97;;;15.92;41.00
9415;BME280;4746;35.664;139.738;2023-12-20T09:37:44;99682.25;;;15.93;41.14
9415;BME280;4746;35.664;139.738;2023-12-20T09:40:19;99689.09;;;15.94;41.18
9415;BME280;4746;35.664;139.738;2023-12-20T09:43:04;99690.81;;;15.95;40.93
9415;BME280;4746;35.664;139.738;2023-12-20T09:45:35;99688.38;;;15.89;41.89
9415;BME280;4746;35.664;139.738;2023-12-20T09:48:04;99705.53;;;15.90;42.10
9415;BME280;4746;35.664;139.738;2023-12-20T09:50:33;99707.34;;;15.88;42.21
9415;BME280;4746;35.664;139.738;2023-12-20T09:53:03;99709.03;;;15.89;42.43
9415;BME280;4746;35.664;139.738;2023-12-20T09:55:33;99685.78;;;15.89;42.36
9415;BME280;4746;35.664;139.738;2023-12-20T09:58:02;99678.97;;;15.86;42.84
9415;BME280;4746;35.664;139.738;2023-12-20T10:00:30;99690.16;;;15.85;43.25
9415;BME280;4746;35.664;139.738;2023-12-20T10:02:59;99699.59;;;15.88;43.28
9415;BME280;4746;35.664;139.738;2023-12-20T10:05:30;99702.16;;;15.88;43.78
9415;BME280;4746;35.664;139.738;2023-12-20T10:07:59;99703.09;;;15.84;43.63
9415;BME280;4746;35.664;139.738;2023-12-20T10:10:27;99700.50;;;15.84;43.58
9415;BME280;4746;35.664;139.738;2023-12-20T10:13:09;99703.91;;;15.86;43.74
9415;BME280;4746;35.664;139.738;2023-12-20T10:15:38;99698.88;;;15.80;43.97
9415;BME280;4746;35.664;139.738;2023-12-20T10:18:06;99684.25;;;15.80;44.23
9415;BME280;4746;35.664;139.738;2023-12-20T10:20:35;99687.72;;;15.78;44.43
9415;BME280;4746;35.664;139.738;2023-12-20T10:23:03;99679.97;;;15.78;44.64
9415;BME280;4746;35.664;139.738;2023-12-20T10:25:31;99681.78;;;15.76;44.73
9415;BME280;4746;35.664;139.738;2023-12-20T10:28:16;99695.44;;;15.81;44.30
9415;BME280;4746;35.664;139.738;2023-12-20T10:30:50;99696.44;;;15.74;45.04
9415;BME280;4746;35.664;139.738;2023-12-20T10:33:28;99687.78;;;15.76;44.81
9415;BME280;4746;35.664;139.738;2023-12-20T10:35:56;99692.25;;;15.70;44.98
9415;BME280;4746;35.664;139.738;2023-12-20T10:38:24;99695.69;;;15.69;45.21
9415;BME280;4746;35.664;139.738;2023-12-20T10:40:57;99693.94;;;15.71;45.31
9415;BME280;4746;35.664;139.738;2023-12-20T10:43:28;99713.78;;;15.69;45.42
9415;BME280;4746;35.664;139.738;2023-12-20T10:45:59;99722.41;;;15.68;45.52
9415;BME280;4746;35.664;139.738;2023-12-20T10:48:28;99712.94;;;15.67;45.58
9415;BME280;4746;35.664;139.738;2023-12-20T10:50:58;99728.44;;;15.67;45.86
9415;BME280;4746;35.664;139.738;2023-12-20T10:53:26;99728.44;;;15.67;45.90
9415;BME280;4746;35.664;139.738;2023-12-20T10:56:00;99735.31;;;15.68;45.73
9415;BME280;4746;35.664;139.738;2023-12-20T10:58:32;99743.94;;;15.67;45.91
9415;BME280;4746;35.664;139.738;2023-12-20T11:01:03;99740.56;;;15.65;46.13
9415;BME280;4746;35.664;139.738;2023-12-20T11:03:36;99731.03;;;15.67;46.04
9415;BME280;4746;35.664;139.738;2023-12-20T11:06:33;99747.34;;;15.69;45.98
9415;BME280;4746;35.664;139.738;2023-12-20T11:09:24;99752.59;;;15.66;45.91
9415;BME280;4746;35.664;139.738;2023-12-20T11:12:02;99748.34;;;15.62;46.18
9415;BME280;4746;35.664;139.738;2023-12-20T11:17:14;99751.78;;;15.64;46.54
9415;BME280;4746;35.664;139.738;2023-12-20T11:22:31;99749.19;;;15.64;46.47
9415;BME280;4746;35.664;139.738;2023-12-20T11:25:10;99744.03;;;15.64;46.28
9415;BME280;4746;35.664;139.738;2023-12-20T11:27:42;99752.69;;;15.61;46.67
9415;BME280;4746;35.664;139.738;2023-12-20T11:30:11;99753.59;;;15.57;46.65
9415;BME280;4746;35.664;139.738;2023-12-20T11:32:40;99741.56;;;15.58;47.23
9415;BME280;4746;35.664;139.738;2023-12-20T11:37:39;99745.84;;;15.59;46.94
9415;BME280;4746;35.664;139.738;2023-12-20T11:40:17;99756.09;;;15.62;46.83
9415;BME280;4746;35.664;139.738;2023-12-20T11:42:49;99750.16;;;15.60;47.13
9415;BME280;4746;35.664;139.738;2023-12-20T11:45:25;99744.06;;;15.62;46.67
9415;BME280;4746;35.664;139.738;2023-12-20T11:47:54;99751.81;;;15.61;47.00
9415;BME280;4746;35.664;139.738;2023-12-20T11:50:23;99742.41;;;15.60;46.97
9415;BME280;4746;35.664;139.738;2023-12-20T11:52:53;99746.66;;;15.61;47.26
9415;BME280;4746;35.664;139.738;2023-12-20T11:55:23;99740.69;;;15.59;47.22
9415;BME280;4746;35.664;139.738;2023-12-20T11:57:54;99739.81;;;15.58;46.57
9415;BME280;4746;35.664;139.738;2023-12-20T12:00:21;99741.59;;;15.55;46.67
9415;BME280;4746;35.664;139.738;2023-12-20T12:02:59;99731.28;;;15.56;46.49
9415;BME280;4746;35.664;139.738;2023-12-20T12:05:30;99723.63;;;15.52;46.50
9415;BME280;4746;35.664;139.738;2023-12-20T12:07:58;99733.06;;;15.51;46.92
9415;BME280;4746;35.664;139.738;2023-12-20T12:10:26;99728.81;;;15.50;46.36
9415;BME280;4746;35.664;139.738;2023-12-20T12:12:54;99734.84;;;15.49;46.67
9415;BME280;4746;35.664;139.738;2023-12-20T12:15:21;99732.31;;;15.46;46.57
9415;BME280;4746;35.664;139.738;2023-12-20T12:17:56;99738.34;;;15.47;46.39
9415;BME280;4746;35.664;139.738;2023-12-20T12:20:27;99735.03;;;15.42;46.30
9415;BME280;4746;35.664;139.738;2023-12-20T12:23:05;99715.28;;;15.39;46.42
9415;BME280;4746;35.664;139.738;2023-12-20T12:25:36;99722.22;;;15.36;46.82
9415;BME280;4746;35.664;139.738;2023-12-20T12:28:04;99717.13;;;15.33;46.86
9415;BME280;4746;35.664;139.738;2023-12-20T12:30:32;99721.44;;;15.32;47.02
9415;BME280;4746;35.664;139.738;2023-12-20T12:33:00;99712.03;;;15.28;47.21
9415;BME280;4746;35.664;139.738;2023-12-20T12:35:27;99708.53;;;15.31;47.04
9415;BME280;4746;35.664;139.738;2023-12-20T12:37:59;99721.41;;;15.34;47.31
9415;BME280;4746;35.664;139.738;2023-12-20T12:40:27;99721.44;;;15.32;47.03
9415;BME280;4746;35.664;139.738;2023-12-20T12:42:56;99709.44;;;15.28;47.20
9415;BME280;4746;35.664;139.738;2023-12-20T12:45:25;99708.69;;;15.25;47.01
9415;BME280;4746;35.664;139.738;2023-12-20T12:47:53;99715.59;;;15.23;46.89
9415;BME280;4746;35.664;139.738;2023-12-20T12:50:21;99714.78;;;15.20;47.03
9415;BME280;4746;35.664;139.738;2023-12-20T12:52:49;99726.00;;;15.17;46.95
9415;BME280;4746;35.664;139.738;2023-12-20T12:55:17;99714.94;;;15.11;46.54
9415;BME280;4746;35.664;139.738;2023-12-20T12:57:45;99730.53;;;15.06;45.98
9415;BME280;4746;35.664;139.738;2023-12-20T13:00:13;99726.31;;;15.01;46.12
9415;BME280;4746;35.664;139.738;2023-12-20T13:02:40;99725.63;;;14.93;45.92
9415;BME280;4746;35.664;139.738;2023-12-20T13:05:09;99714.56;;;14.86;45.82
9415;BME280;4746;35.664;139.738;2023-12-20T13:07:37;99720.69;;;14.81;45.73
9415;BME280;4746;35.664;139.738;2023-12-20T13:10:06;99728.50;;;14.76;45.78
9415;BME280;4746;35.664;139.738;2023-12-20T13:12:34;99732.03;;;14.72;45.61
9415;BME280;4746;35.664;139.738;2023-12-20T13:15:01;99734.63;;;14.69;45.41
9415;BME280;4746;35.664;139.738;2023-12-20T13:17:31;99737.28;;;14.66;45.54